sensor_id;sensor_type;location;lat;lon;timestamp;temperature;humidity
10095;DHT22;5086;50.830;7.102;2023-04-25T00:07:00;7.80;99.90
10095;DHT22;5086;50.830;7.102;2023-04-25T00:17:15;7.80;99.90
10095;DHT22;5086;50.830;7.102;2023-04-25T00:20:07;7.70;99.90
10095;DHT22;5086;50.830;7.102;2023-04-25T00:22:50;7.70;99.90
10095;DHT22;5086;50.830;7.102;2023-04-25T00:25:34;7.70;99.90
10095;DHT22;5086;50.830;7.102;2023-04-25T00:31:50;7.70;99.90
10095;DHT22;5086;50.830;7.102;2023-04-25T01:01:08;7.20;99.90
10095;DHT22;5086;50.830;7.102;2023-04-25T01:03:46;7.20;99.90
10095;DHT22;5086;50.830;7.102;2023-04-25T01:06:33;7.00;99.90
10095;DHT22;5086;50.830;7.102;2023-04-25T01:12:28;6.90;99.90
10095;DHT22;5086;50.830;7.102;2023-04-25T01:22:16;6.80;99.90
10095;DHT22;5086;50.830;7.102;2023-04-25T01:35:29;6.60;99.90
10095;DHT22;5086;50.830;7.102;2023-04-25T01:37:58;6.60;99.90
10095;DHT22;5086;50.830;7.102;2023-04-25T02:07:28;6.30;99.90
10095;DHT22;5086;50.830;7.102;2023-04-25T02:10:40;6.30;99.90
10095;DHT22;5086;50.830;7.102;2023-04-25T02:16:58;6.50;99.90
10095;DHT22;5086;50.830;7.102;2023-04-25T02:19:26;6.60;99.90
10095;DHT22;5086;50.830;7.102;2023-04-25T02:21:56;6.60;99.90
10095;DHT22;5086;50.830;7.102;2023-04-25T02:27:36;6.60;99.90
10095;DHT22;5086;50.830;7.102;2023-04-25T02:30:05;6.50;99.90
10095;DHT22;5086;50.830;7.102;2023-04-25T02:36:03;6.40;99.90
10095;DHT22;5086;50.830;7.102;2023-04-25T02:39:01;6.30;99.90
10095;DHT22;5086;50.830;7.102;2023-04-25T02:41:39;6.30;99.90
10095;DHT22;5086;50.830;7.102;2023-04-25T03:51:53;6.20;99.90
10095;DHT22;5086;50.830;7.102;2023-04-25T04:01:28;6.30;99.90
10095;DHT22;5086;50.830;7.102;2023-04-25T04:21:16;6.40;99.90
10095;DHT22;5086;50.830;7.102;2023-04-25T04:24:20;6.40;99.90
10095;DHT22;5086;50.830;7.102;2023-04-25T04:27:27;6.40;99.90
10095;DHT22;5086;50.830;7.102;2023-04-25T04:30:43;6.50;99.90
10095;DHT22;5086;50.830;7.102;2023-04-25T04:33:43;6.50;99.90
10095;DHT22;5086;50.830;7.102;2023-04-25T04:36:17;6.50;99.90
10095;DHT22;5086;50.830;7.102;2023-04-25T04:39:01;6.50;99.90
10095;DHT22;5086;50.830;7.102;2023-04-25T04:41:57;6.50;99.90
10095;DHT22;5086;50.830;7.102;2023-04-25T04:47:39;6.70;99.90
10095;DHT22;5086;50.830;7.102;2023-04-25T04:50:07;6.70;99.90
10095;DHT22;5086;50.830;7.102;2023-04-25T04:56:38;6.80;99.90
10095;DHT22;5086;50.830;7.102;2023-04-25T04:59:49;6.80;99.90
10095;DHT22;5086;50.830;7.102;2023-04-25T05:02:19;6.90;99.90
10095;DHT22;5086;50.830;7.102;2023-04-25T05:05:05;6.90;99.90
10095;DHT22;5086;50.830;7.102;2023-04-25T05:07:34;7.00;99.90
10095;DHT22;5086;50.830;7.102;2023-04-25T05:14:00;7.00;99.90
10095;DHT22;5086;50.830;7.102;2023-04-25T05:16:27;6.90;99.90
10095;DHT22;5086;50.830;7.102;2023-04-25T05:18:54;6.90;99.90
10095;DHT22;5086;50.830;7.102;2023-04-25T05:21:21;7.00;99.90
10095;DHT22;5086;50.830;7.102;2023-04-25T05:23:47;7.10;99.90
10095;DHT22;5086;50.830;7.102;2023-04-25T05:26:17;7.10;99.90
10095;DHT22;5086;50.830;7.102;2023-04-25T05:29:22;7.10;99.90
10095;DHT22;5086;50.830;7.102;2023-04-25T05:32:22;7.10;99.90
10095;DHT22;5086;50.830;7.102;2023-04-25T05:35:04;7.20;99.90
10095;DHT22;5086;50.830;7.102;2023-04-25T05:37:35;7.10;99.90
10095;DHT22;5086;50.830;7.102;2023-04-25T05:40:14;7.20;99.90
10095;DHT22;5086;50.830;7.102;2023-04-25T05:44:15;7.20;99.90
10095;DHT22;5086;50.830;7.102;2023-04-25T05:46:12;7.20;99.90
10095;DHT22;5086;50.830;7.102;2023-04-25T05:48:47;7.40;99.90
10095;DHT22;5086;50.830;7.102;2023-04-25T05:54:43;7.50;99.90
10095;DHT22;5086;50.830;7.102;2023-04-25T05:57:37;7.50;99.90
10095;DHT22;5086;50.830;7.102;2023-04-25T06:00:13;7.50;99.90
10095;DHT22;5086;50.830;7.102;2023-04-25T06:03:40;7.60;99.90
10095;DHT22;5086;50.830;7.102;2023-04-25T06:06:16;7.70;99.90
10095;DHT22;5086;50.830;7.102;2023-04-25T06:08:43;7.80;99.90
10095;DHT22;5086;50.830;7.102;2023-04-25T06:11:10;8.00;99.90
10095;DHT22;5086;50.830;7.102;2023-04-25T06:13:50;8.20;99.90
10095;DHT22;5086;50.830;7.102;2023-04-25T06:16:19;8.20;99.90
10095;DHT22;5086;50.830;7.102;2023-04-25T06:18:47;8.50;99.90
10095;DHT22;5086;50.830;7.102;2023-04-25T06:21:14;8.90;99.90
10095;DHT22;5086;50.830;7.102;2023-04-25T06:23:41;9.20;99.90
10095;DHT22;5086;50.830;7.102;2023-04-25T06:26:10;9.40;99.90
10095;DHT22;5086;50.830;7.102;2023-04-25T06:28:50;9.50;99.90
10095;DHT22;5086;50.830;7.102;2023-04-25T06:31:30;9.60;99.90
10095;DHT22;5086;50.830;7.102;2023-04-25T06:34:01;9.50;99.90
10095;DHT22;5086;50.830;7.102;2023-04-25T06:36:27;9.60;99.90
10095;DHT22;5086;50.830;7.102;2023-04-25T06:39:08;9.80;99.90
10095;DHT22;5086;50.830;7.102;2023-04-25T06:41:36;9.80;99.90
10095;DHT22;5086;50.830;7.102;2023-04-25T06:44:02;9.80;99.90
10095;DHT22;5086;50.830;7.102;2023-04-25T06:46:29;9.60;99.90
10095;DHT22;5086;50.830;7.102;2023-04-25T06:48:57;9.50;99.90
10095;DHT22;5086;50.830;7.102;2023-04-25T06:51:42;9.40;99.90
10095;DHT22;5086;50.830;7.102;2023-04-25T06:54:08;9.40;99.90
10095;DHT22;5086;50.830;7.102;2023-04-25T06:56:36;9.20;99.90
10095;DHT22;5086;50.830;7.102;2023-04-25T07:01:58;10.10;99.90
10095;DHT22;5086;50.830;7.102;2023-04-25T07:04:39;10.50;99.90
10095;DHT22;5086;50.830;7.102;2023-04-25T07:07:08;11.10;99.90
10095;DHT22;5086;50.830;7.102;2023-04-25T07:09:34;11.90;99.90
10095;DHT22;5086;50.830;7.102;2023-04-25T07:12:02;11.90;99.90
10095;DHT22;5086;50.830;7.102;2023-04-25T07:14:32;11.90;99.90
10095;DHT22;5086;50.830;7.102;2023-04-25T07:17:19;12.10;99.90
10095;DHT22;5086;50.830;7.102;2023-04-25T07:20:03;11.80;99.90
10095;DHT22;5086;50.830;7.102;2023-04-25T07:22:36;11.40;99.90
10095;DHT22;5086;50.830;7.102;2023-04-25T07:25:06;11.10;99.90
10095;DHT22;5086;50.830;7.102;2023-04-25T07:27:51;10.90;99.90
10095;DHT22;5086;50.830;7.102;2023-04-25T07:30:20;11.00;99.90
10095;DHT22;5086;50.830;7.102;2023-04-25T07:32:53;11.50;99.90
10095;DHT22;5086;50.830;7.102;2023-04-25T07:35:25;11.90;99.90
10095;DHT22;5086;50.830;7.102;2023-04-25T07:37:54;12.50;99.90
10095;DHT22;5086;50.830;7.102;2023-04-25T07:40:21;12.70;99.90
10095;DHT22;5086;50.830;7.102;2023-04-25T07:42:48;12.30;99.90
10095;DHT22;5086;50.830;7.102;2023-04-25T07:45:15;11.80;99.90
10095;DHT22;5086;50.830;7.102;2023-04-25T07:48:20;11.30;99.90
10095;DHT22;5086;50.830;7.102;2023-04-25T07:50:54;10.90;99.90
10095;DHT22;5086;50.830;7.102;2023-04-25T07:53:39;10.50;99.90
10095;DHT22;5086;50.830;7.102;2023-04-25T07:56:06;10.30;99.90
10095;DHT22;5086;50.830;7.102;2023-04-25T07:58:34;10.20;99.90
10095;DHT22;5086;50.830;7.102;2023-04-25T08:01:01;10.70;99.90
10095;DHT22;5086;50.830;7.102;2023-04-25T08:03:28;10.90;99.90
10095;DHT22;5086;50.830;7.102;2023-04-25T08:05:55;10.50;99.90
10095;DHT22;5086;50.830;7.102;2023-04-25T08:08:22;10.10;99.90
10095;DHT22;5086;50.830;7.102;2023-04-25T08:10:50;9.80;99.90
10095;DHT22;5086;50.830;7.102;2023-04-25T08:13:17;9.60;99.90
10095;DHT22;5086;50.830;7.102;2023-04-25T08:15:44;9.60;99.90
10095;DHT22;5086;50.830;7.102;2023-04-25T08:18:11;9.80;99.90
10095;DHT22;5086;50.830;7.102;2023-04-25T08:20:38;9.90;99.90
10095;DHT22;5086;50.830;7.102;2023-04-25T08:23:06;10.10;99.90
10095;DHT22;5086;50.830;7.102;2023-04-25T08:25:33;10.30;99.90
10095;DHT22;5086;50.830;7.102;2023-04-25T08:28:05;10.50;99.90
10095;DHT22;5086;50.830;7.102;2023-04-25T08:30:33;10.40;99.90
10095;DHT22;5086;50.830;7.102;2023-04-25T08:33:03;10.40;99.90
10095;DHT22;5086;50.830;7.102;2023-04-25T08:35:33;10.40;99.90
10095;DHT22;5086;50.830;7.102;2023-04-25T08:38:00;10.80;99.90
10095;DHT22;5086;50.830;7.102;2023-04-25T08:40:28;10.90;99.90
10095;DHT22;5086;50.830;7.102;2023-04-25T08:42:57;11.00;99.90
10095;DHT22;5086;50.830;7.102;2023-04-25T08:45:26;10.90;99.90
10095;DHT22;5086;50.830;7.102;2023-04-25T08:47:57;10.60;99.90
10095;DHT22;5086;50.830;7.102;2023-04-25T08:50:27;10.40;99.90
10095;DHT22;5086;50.830;7.102;2023-04-25T08:52:59;10.40;99.90
10095;DHT22;5086;50.830;7.102;2023-04-25T08:55:31;10.50;99.90
10095;DHT22;5086;50.830;7.102;2023-04-25T08:58:00;10.50;99.90
10095;DHT22;5086;50.830;7.102;2023-04-25T09:00:29;10.70;99.90
10095;DHT22;5086;50.830;7.102;2023-04-25T09:02:56;10.70;99.90
10095;DHT22;5086;50.830;7.102;2023-04-25T09:05:24;10.60;99.90
10095;DHT22;5086;50.830;7.102;2023-04-25T09:07:51;10.70;99.90
10095;DHT22;5086;50.830;7.102;2023-04-25T09:10:18;10.90;99.90
10095;DHT22;5086;50.830;7.102;2023-04-25T09:12:53;10.90;99.90
10095;DHT22;5086;50.830;7.102;2023-04-25T09:15:29;10.80;99.90
10095;DHT22;5086;50.830;7.102;2023-04-25T09:17:56;10.60;99.90
10095;DHT22;5086;50.830;7.102;2023-04-25T09:20:23;10.40;99.90
10095;DHT22;5086;50.830;7.102;2023-04-25T09:23:01;10.10;99.90
10095;DHT22;5086;50.830;7.102;2023-04-25T09:25:34;10.20;99.90
10095;DHT22;5086;50.830;7.102;2023-04-25T09:28:03;10.10;99.90
10095;DHT22;5086;50.830;7.102;2023-04-25T09:30:34;10.00;99.90
10095;DHT22;5086;50.830;7.102;2023-04-25T09:33:04;10.10;99.90
10095;DHT22;5086;50.830;7.102;2023-04-25T09:35:35;10.10;99.90
10095;DHT22;5086;50.830;7.102;2023-04-25T09:38:07;10.00;99.90
10095;DHT22;5086;50.830;7.102;2023-04-25T09:40:39;9.80;99.90
10095;DHT22;5086;50.830;7.102;2023-04-25T09:43:09;9.60;99.90
10095;DHT22;5086;50.830;7.102;2023-04-25T09:45:42;9.80;99.90
10095;DHT22;5086;50.830;7.102;2023-04-25T09:48:11;10.00;99.90
10095;DHT22;5086;50.830;7.102;2023-04-25T09:50:38;9.80;99.90
10095;DHT22;5086;50.830;7.102;2023-04-25T09:53:07;9.90;99.90
10095;DHT22;5086;50.830;7.102;2023-04-25T09:55:35;9.90;99.90
10095;DHT22;5086;50.830;7.102;2023-04-25T09:58:04;10.20;99.90
10095;DHT22;5086;50.830;7.102;2023-04-25T10:00:33;10.20;99.90
10095;DHT22;5086;50.830;7.102;2023-04-25T10:03:11;10.40;99.90
10095;DHT22;5086;50.830;7.102;2023-04-25T10:05:39;10.50;99.90
10095;DHT22;5086;50.830;7.102;2023-04-25T10:08:07;10.60;99.90
10095;DHT22;5086;50.830;7.102;2023-04-25T10:10:34;10.60;99.90
10095;DHT22;5086;50.830;7.102;2023-04-25T10:13:04;10.70;99.90
10095;DHT22;5086;50.830;7.102;2023-04-25T10:15:34;10.60;99.90
10095;DHT22;5086;50.830;7.102;2023-04-25T10:18:03;10.60;99.90
10095;DHT22;5086;50.830;7.102;2023-04-25T10:20:32;10.50;99.90
10095;DHT22;5086;50.830;7.102;2023-04-25T10:23:06;10.70;99.90
10095;DHT22;5086;50.830;7.102;2023-04-25T10:25:39;10.80;99.90
10095;DHT22;5086;50.830;7.102;2023-04-25T10:28:06;11.10;99.90
10095;DHT22;5086;50.830;7.102;2023-04-25T10:30:33;11.20;99.90
10095;DHT22;5086;50.830;7.102;2023-04-25T10:33:00;11.00;99.90
10095;DHT22;5086;50.830;7.102;2023-04-25T10:35:30;10.80;99.90
10095;DHT22;5086;50.830;7.102;2023-04-25T10:37:59;10.40;99.90
10095;DHT22;5086;50.830;7.102;2023-04-25T10:40:27;10.20;99.90
10095;DHT22;5086;50.830;7.102;2023-04-25T10:42:54;10.20;99.90
10095;DHT22;5086;50.830;7.102;2023-04-25T10:45:21;10.20;99.90
10095;DHT22;5086;50.830;7.102;2023-04-25T10:47:49;10.00;99.90
10095;DHT22;5086;50.830;7.102;2023-04-25T10:50:15;10.00;99.90
10095;DHT22;5086;50.830;7.102;2023-04-25T10:52:44;9.90;99.90
10095;DHT22;5086;50.830;7.102;2023-04-25T10:55:11;9.90;99.90
10095;DHT22;5086;50.830;7.102;2023-04-25T10:57:40;9.90;99.90
10095;DHT22;5086;50.830;7.102;2023-04-25T11:00:18;10.00;99.90
10095;DHT22;5086;50.830;7.102;2023-04-25T11:02:51;10.10;99.90
10095;DHT22;5086;50.830;7.102;2023-04-25T11:05:22;10.20;99.90
10095;DHT22;5086;50.830;7.102;2023-04-25T11:07:52;10.40;99.90
10095;DHT22;5086;50.830;7.102;2023-04-25T11:10:20;10.50;99.90
10095;DHT22;5086;50.830;7.102;2023-04-25T11:12:47;10.50;99.90
10095;DHT22;5086;50.830;7.102;2023-04-25T11:15:14;10.90;99.90
10095;DHT22;5086;50.830;7.102;2023-04-25T11:17:41;11.30;99.90
10095;DHT22;5086;50.830;7.102;2023-04-25T11:20:10;11.70;99.90
10095;DHT22;5086;50.830;7.102;2023-04-25T11:22:41;11.90;99.90
10095;DHT22;5086;50.830;7.102;2023-04-25T11:25:49;11.90;99.90
10095;DHT22;5086;50.830;7.102;2023-04-25T11:28:30;11.70;99.90
10095;DHT22;5086;50.830;7.102;2023-04-25T11:30:57;11.40;99.90
10095;DHT22;5086;50.830;7.102;2023-04-25T11:33:25;11.00;99.90
10095;DHT22;5086;50.830;7.102;2023-04-25T11:35:54;10.80;99.90
10095;DHT22;5086;50.830;7.102;2023-04-25T11:38:22;10.80;99.90
10095;DHT22;5086;50.830;7.102;2023-04-25T11:40:52;10.80;99.90
10095;DHT22;5086;50.830;7.102;2023-04-25T11:43:21;10.80;99.90
10095;DHT22;5086;50.830;7.102;2023-04-25T11:45:48;10.70;99.90
10095;DHT22;5086;50.830;7.102;2023-04-25T11:48:16;10.60;99.90
10095;DHT22;5086;50.830;7.102;2023-04-25T11:50:45;10.80;99.90
10095;DHT22;5086;50.830;7.102;2023-04-25T11:53:12;10.70;99.90
10095;DHT22;5086;50.830;7.102;2023-04-25T11:55:42;10.70;99.90
10095;DHT22;5086;50.830;7.102;2023-04-25T11:58:10;10.80;99.90
10095;DHT22;5086;50.830;7.102;2023-04-25T12:00:41;11.00;99.90
10095;DHT22;5086;50.830;7.102;2023-04-25T12:03:11;11.20;99.90
10095;DHT22;5086;50.830;7.102;2023-04-25T12:05:38;11.40;99.90
10095;DHT22;5086;50.830;7.102;2023-04-25T12:08:11;11.40;99.90
10095;DHT22;5086;50.830;7.102;2023-04-25T12:10:41;11.60;99.90
10095;DHT22;5086;50.830;7.102;2023-04-25T12:13:23;11.60;99.90
10095;DHT22;5086;50.830;7.102;2023-04-25T12:15:50;11.70;99.90
10095;DHT22;5086;50.830;7.102;2023-04-25T12:18:19;11.80;99.90
10095;DHT22;5086;50.830;7.102;2023-04-25T12:20:47;12.00;99.90
10095;DHT22;5086;50.830;7.102;2023-04-25T12:23:14;12.20;99.90
10095;DHT22;5086;50.830;7.102;2023-04-25T12:25:42;12.10;99.90
10095;DHT22;5086;50.830;7.102;2023-04-25T12:31:06;11.90;99.90
10095;DHT22;5086;50.830;7.102;2023-04-25T12:33:35;11.90;99.90
10095;DHT22;5086;50.830;7.102;2023-04-25T12:36:05;11.90;99.90
10095;DHT22;5086;50.830;7.102;2023-04-25T12:38:42;12.00;99.90
10095;DHT22;5086;50.830;7.102;2023-04-25T12:41:39;12.10;99.90
10095;DHT22;5086;50.830;7.102;2023-04-25T12:44:09;12.40;99.90
10095;DHT22;5086;50.830;7.102;2023-04-25T12:46:39;12.70;99.90
10095;DHT22;5086;50.830;7.102;2023-04-25T12:49:13;12.70;99.90
10095;DHT22;5086;50.830;7.102;2023-04-25T12:51:40;13.10;99.90
10095;DHT22;5086;50.830;7.102;2023-04-25T12:54:44;13.20;99.90
10095;DHT22;5086;50.830;7.102;2023-04-25T12:57:19;13.30;99.90
10095;DHT22;5086;50.830;7.102;2023-04-25T12:59:46;13.50;99.90
10095;DHT22;5086;50.830;7.102;2023-04-25T13:02:18;13.60;99.90
10095;DHT22;5086;50.830;7.102;2023-04-25T13:04:48;13.70;99.90
10095;DHT22;5086;50.830;7.102;2023-04-25T13:07:17;13.60;99.90
10095;DHT22;5086;50.830;7.102;2023-04-25T13:10:09;13.40;99.90
10095;DHT22;5086;50.830;7.102;2023-04-25T13:12:51;13.20;99.90
10095;DHT22;5086;50.830;7.102;2023-04-25T13:15:18;12.60;99.90
10095;DHT22;5086;50.830;7.102;2023-04-25T13:17:47;12.30;99.90
10095;DHT22;5086;50.830;7.102;2023-04-25T13:20:16;12.10;99.90
10095;DHT22;5086;50.830;7.102;2023-04-25T13:22:44;12.10;99.90
10095;DHT22;5086;50.830;7.102;2023-04-25T13:25:13;11.90;99.90
10095;DHT22;5086;50.830;7.102;2023-04-25T13:27:43;11.70;99.90
10095;DHT22;5086;50.830;7.102;2023-04-25T13:30:12;11.60;99.90
10095;DHT22;5086;50.830;7.102;2023-04-25T13:32:40;11.60;99.90
10095;DHT22;5086;50.830;7.102;2023-04-25T13:35:37;11.40;99.90
10095;DHT22;5086;50.830;7.102;2023-04-25T13:38:05;11.40;99.90
10095;DHT22;5086;50.830;7.102;2023-04-25T13:40:32;11.40;99.90
10095;DHT22;5086;50.830;7.102;2023-04-25T13:42:59;11.40;99.90
10095;DHT22;5086;50.830;7.102;2023-04-25T13:45:26;11.30;99.90
10095;DHT22;5086;50.830;7.102;2023-04-25T13:47:56;11.20;99.90
10095;DHT22;5086;50.830;7.102;2023-04-25T13:50:28;11.20;99.90
10095;DHT22;5086;50.830;7.102;2023-04-25T13:53:03;11.30;99.90
10095;DHT22;5086;50.830;7.102;2023-04-25T13:55:45;11.30;99.90
10095;DHT22;5086;50.830;7.102;2023-04-25T13:58:33;11.30;99.90
10095;DHT22;5086;50.830;7.102;2023-04-25T14:01:07;11.50;99.90
10095;DHT22;5086;50.830;7.102;2023-04-25T14:03:34;11.50;99.90
10095;DHT22;5086;50.830;7.102;2023-04-25T14:06:22;11.50;99.90
10095;DHT22;5086;50.830;7.102;2023-04-25T14:09:05;11.40;99.90
10095;DHT22;5086;50.830;7.102;2023-04-25T14:12:02;11.50;99.90
10095;DHT22;5086;50.830;7.102;2023-04-25T14:14:47;11.70;99.90
10095;DHT22;5086;50.830;7.102;2023-04-25T14:17:40;11.80;99.90
10095;DHT22;5086;50.830;7.102;2023-04-25T14:20:34;12.10;99.90
10095;DHT22;5086;50.830;7.102;2023-04-25T14:26:20;12.30;99.90
10095;DHT22;5086;50.830;7.102;2023-04-25T14:28:47;12.40;99.90
10095;DHT22;5086;50.830;7.102;2023-04-25T14:31:14;12.40;99.90
10095;DHT22;5086;50.830;7.102;2023-04-25T14:33:54;12.40;99.90
10095;DHT22;5086;50.830;7.102;2023-04-25T14:36:21;12.40;99.90
10095;DHT22;5086;50.830;7.102;2023-04-25T14:39:06;12.30;99.90
10095;DHT22;5086;50.830;7.102;2023-04-25T14:45:05;12.20;99.90
10095;DHT22;5086;50.830;7.102;2023-04-25T14:47:33;12.10;99.90
10095;DHT22;5086;50.830;7.102;2023-04-25T14:50:14;12.10;99.90
10095;DHT22;5086;50.830;7.102;2023-04-25T14:52:49;12.10;99.90
10095;DHT22;5086;50.830;7.102;2023-04-25T14:55:21;12.00;99.90
10095;DHT22;5086;50.830;7.102;2023-04-25T14:58:06;12.00;99.90
10095;DHT22;5086;50.830;7.102;2023-04-25T15:03:47;11.80;99.90
10095;DHT22;5086;50.830;7.102;2023-04-25T15:06:29;11.60;99.90
10095;DHT22;5086;50.830;7.102;2023-04-25T15:08:59;11.50;99.90
10095;DHT22;5086;50.830;7.102;2023-04-25T15:11:42;11.40;99.90
10095;DHT22;5086;50.830;7.102;2023-04-25T15:14:15;11.40;99.90
10095;DHT22;5086;50.830;7.102;2023-04-25T15:17:10;11.40;99.90
10095;DHT22;5086;50.830;7.102;2023-04-25T15:22:50;11.70;99.90
10095;DHT22;5086;50.830;7.102;2023-04-25T15:25:21;11.80;99.90
10095;DHT22;5086;50.830;7.102;2023-04-25T15:28:08;11.80;99.90
10095;DHT22;5086;50.830;7.102;2023-04-25T15:30:49;11.90;99.90
10095;DHT22;5086;50.830;7.102;2023-04-25T15:33:37;11.90;99.90
10095;DHT22;5086;50.830;7.102;2023-04-25T15:36:20;11.90;99.90
10095;DHT22;5086;50.830;7.102;2023-04-25T15:45:48;11.80;99.90
10095;DHT22;5086;50.830;7.102;2023-04-25T15:48:36;11.70;99.90
10095;DHT22;5086;50.830;7.102;2023-04-25T15:51:38;11.70;99.90
10095;DHT22;5086;50.830;7.102;2023-04-25T16:10:41;11.40;99.90
10095;DHT22;5086;50.830;7.102;2023-04-25T16:24:27;11.50;99.90
10095;DHT22;5086;50.830;7.102;2023-04-25T16:27:12;11.50;99.90
10095;DHT22;5086;50.830;7.102;2023-04-25T16:29:42;11.40;99.90
10095;DHT22;5086;50.830;7.102;2023-04-25T16:35:24;11.10;99.90
10095;DHT22;5086;50.830;7.102;2023-04-25T16:44:27;11.00;99.90
10095;DHT22;5086;50.830;7.102;2023-04-25T16:50:46;11.00;99.90
10095;DHT22;5086;50.830;7.102;2023-04-25T16:53:56;10.90;99.90
10095;DHT22;5086;50.830;7.102;2023-04-25T17:41:06;10.40;99.90
10095;DHT22;5086;50.830;7.102;2023-04-25T17:43:57;10.50;99.90
10095;DHT22;5086;50.830;7.102;2023-04-25T17:47:14;10.40;99.90
10095;DHT22;5086;50.830;7.102;2023-04-25T17:50:00;10.40;99.90
10095;DHT22;5086;50.830;7.102;2023-04-25T17:55:17;10.20;99.90
10095;DHT22;5086;50.830;7.102;2023-04-25T18:01:13;10.10;99.90
10095;DHT22;5086;50.830;7.102;2023-04-25T18:04:01;9.90;99.90
10095;DHT22;5086;50.830;7.102;2023-04-25T18:06:55;9.80;99.90
10095;DHT22;5086;50.830;7.102;2023-04-25T18:34:19;9.00;99.90
10095;DHT22;5086;50.830;7.102;2023-04-25T19:00:51;8.50;99.90
10095;DHT22;5086;50.830;7.102;2023-04-25T19:07:12;8.30;99.90
10095;DHT22;5086;50.830;7.102;2023-04-25T19:48:07;7.80;99.90
10095;DHT22;5086;50.830;7.102;2023-04-25T19:50:34;7.70;99.90
10095;DHT22;5086;50.830;7.102;2023-04-25T19:53:04;7.70;99.90
10095;DHT22;5086;50.830;7.102;2023-04-25T19:55:32;7.60;99.90
10095;DHT22;5086;50.830;7.102;2023-04-25T19:58:01;7.50;99.90
10095;DHT22;5086;50.830;7.102;2023-04-25T20:00:29;7.30;99.90
10095;DHT22;5086;50.830;7.102;2023-04-25T20:02:56;7.30;99.90
10095;DHT22;5086;50.830;7.102;2023-04-25T20:12:07;7.20;99.90
10095;DHT22;5086;50.830;7.102;2023-04-25T20:18:10;7.10;99.90
10095;DHT22;5086;50.830;7.102;2023-04-25T20:20:49;7.10;99.90
10095;DHT22;5086;50.830;7.102;2023-04-25T20:29:46;7.00;99.90
10095;DHT22;5086;50.830;7.102;2023-04-25T20:38:52;6.90;99.90
10095;DHT22;5086;50.830;7.102;2023-04-25T21:52:21;6.40;99.90
10095;DHT22;5086;50.830;7.102;2023-04-25T21:55:03;6.50;99.90
10095;DHT22;5086;50.830;7.102;2023-04-25T21:58:31;6.50;99.90
10095;DHT22;5086;50.830;7.102;2023-04-25T22:11:13;6.50;99.90
10095;DHT22;5086;50.830;7.102;2023-04-25T22:16:52;6.50;99.90
